Terminal Aerodrome Forecast
Issued by NWS

Home | Current Version | Previous Version | Text Only | Print | Product List | Glossary On
Versions: 1 2 3 4 5 6 7 8 9 10 11 12 13 14 15 16 17 18 19 20 21 22 23 24 25 26 27 28 29 30 31 32
621
FTUS44 KOHX 201222 AAA
TAFCKV
TAF AMD
KCKV 201222Z 2012/2112 23005KT P6SM SCT045 BKN150
     FM202000 17005KT P6SM VCTS BKN050CB BKN150
     FM210100 17003KT P6SM SCT150
     FM210900 17003KT 6SM BR VCTS BKN025 BKN050CB OVC080=

USA.gov is the U.S. government's official web portal to all federal, state and local government web resources and services.